Portada
METAR-TAF:

METAR-TAF

Aeropuertos :

Aeropuerto de Madrid-Cuatro Vientos

Madrid-Cuatro Vientos, España

latitud: 40-23N, longitud: 003-47W, altitud: 690 m

Observación

El informe se hizo hace 17 minutos, a las 12:00 UTC
Viento 5 kt del este-sureste, variando entre este-noreste y sur-suroeste
Temperatura 29°C
Humedad 33%
Presión 1021 hPa
Visibilidad 10 km o más
sin nubes por debajo de 1500 m y sin presencia de cumulonimbus.

METAR: LEVS 191200Z 12005KT 060V200 CAVOK 29/11 Q1021

Hora: 14:17 (12:17 UTC)

Pronóstico

El informe se hizo hace 1 hora y 17 minutos, a las 11:00 UTC
Pronóstico válido del 19 a las 12 UTC al 19 a las 21 UTC
Viento 8 kt del sureste
Visibilidad 10 km o más
sin nubes por debajo de 1500 m y sin presencia de cumulonimbus.
Probabilidad 30% :
Temporalmente
del 19 a las 12 UTC al 19 a las 21 UTC
Viento 8 kt del sur-sureste con ráfagas de 18 kt

TAF: LEVS 191100Z 1912/1921 14008KT CAVOK PROB30 TEMPO 1912/1921 15008G18KT

Observaciones y pronósticos meteorológicos de más de 4000 aeropuertos (mensajes METAR y TAF).

Los puntos amarillos y rojos representan las estaciones disponibles.

Ponga el ratón en el punto deseado para ver el nombre de la estación.

Haga clic para ver las observaciones y los pronósticos meteorológicos.

Para cambiar el mapa : haga clic en los botones verdes con una cruz de color negro para hacer un zoom, en el botón verde con un guión para alejar o en las flechas verdes para mapas adyacentes.


METAR-TAF: